sensor_id;sensor_type;location;lat;lon;timestamp;P1;durP1;ratioP1;P2;durP2;ratioP2
69837;SDS011;57135;51.992;4.476;2023-05-13T00:00:04;25.37;;;25.37;;
69837;SDS011;57135;51.992;4.476;2023-05-13T00:02:30;25.44;;;25.43;;
69837;SDS011;57135;51.992;4.476;2023-05-13T00:04:56;24.34;;;24.30;;
69837;SDS011;57135;51.992;4.476;2023-05-13T00:07:21;23.32;;;23.32;;
69837;SDS011;57135;51.992;4.476;2023-05-13T00:09:47;22.49;;;22.49;;
69837;SDS011;57135;51.992;4.476;2023-05-13T00:12:12;22.23;;;22.23;;
69837;SDS011;57135;51.992;4.476;2023-05-13T00:14:38;22.31;;;22.31;;
69837;SDS011;57135;51.992;4.476;2023-05-13T00:17:03;21.33;;;21.32;;
69837;SDS011;57135;51.992;4.476;2023-05-13T00:19:29;21.14;;;21.13;;
69837;SDS011;57135;51.992;4.476;2023-05-13T00:21:55;20.20;;;20.20;;
69837;SDS011;57135;51.992;4.476;2023-05-13T00:24:21;19.86;;;19.86;;
69837;SDS011;57135;51.992;4.476;2023-05-13T00:26:46;19.10;;;19.10;;
69837;SDS011;57135;51.992;4.476;2023-05-13T00:29:12;18.56;;;18.54;;
69837;SDS011;57135;51.992;4.476;2023-05-13T00:31:37;18.40;;;18.40;;
69837;SDS011;57135;51.992;4.476;2023-05-13T00:34:03;17.59;;;17.59;;
69837;SDS011;57135;51.992;4.476;2023-05-13T00:36:28;15.75;;;15.75;;
69837;SDS011;57135;51.992;4.476;2023-05-13T00:38:54;14.96;;;14.96;;
69837;SDS011;57135;51.992;4.476;2023-05-13T00:41:20;14.57;;;14.57;;
69837;SDS011;57135;51.992;4.476;2023-05-13T00:43:46;13.36;;;13.36;;
69837;SDS011;57135;51.992;4.476;2023-05-13T00:46:12;12.50;;;12.50;;
69837;SDS011;57135;51.992;4.476;2023-05-13T00:48:39;12.64;;;12.63;;
69837;SDS011;57135;51.992;4.476;2023-05-13T00:51:04;12.16;;;12.16;;
69837;SDS011;57135;51.992;4.476;2023-05-13T00:53:31;12.40;;;12.40;;
69837;SDS011;57135;51.992;4.476;2023-05-13T00:55:57;12.00;;;12.00;;
69837;SDS011;57135;51.992;4.476;2023-05-13T00:58:23;11.86;;;11.86;;
69837;SDS011;57135;51.992;4.476;2023-05-13T01:01:04;11.72;;;11.72;;
69837;SDS011;57135;51.992;4.476;2023-05-13T01:03:43;12.18;;;12.18;;
69837;SDS011;57135;51.992;4.476;2023-05-13T01:06:12;12.20;;;12.20;;
69837;SDS011;57135;51.992;4.476;2023-05-13T01:08:46;12.43;;;12.43;;
69837;SDS011;57135;51.992;4.476;2023-05-13T01:11:27;12.71;;;12.71;;
69837;SDS011;57135;51.992;4.476;2023-05-13T01:14:00;13.49;;;13.49;;
69837;SDS011;57135;51.992;4.476;2023-05-13T01:16:30;13.94;;;13.94;;
69837;SDS011;57135;51.992;4.476;2023-05-13T01:19:22;14.27;;;14.27;;
69837;SDS011;57135;51.992;4.476;2023-05-13T01:21:58;14.57;;;14.57;;
69837;SDS011;57135;51.992;4.476;2023-05-13T01:24:24;15.03;;;15.03;;
69837;SDS011;57135;51.992;4.476;2023-05-13T01:26:49;15.37;;;15.37;;
69837;SDS011;57135;51.992;4.476;2023-05-13T01:29:15;15.99;;;15.99;;
69837;SDS011;57135;51.992;4.476;2023-05-13T01:31:41;16.37;;;16.37;;
69837;SDS011;57135;51.992;4.476;2023-05-13T01:34:07;16.55;;;16.55;;
69837;SDS011;57135;51.992;4.476;2023-05-13T01:36:35;16.93;;;16.93;;
69837;SDS011;57135;51.992;4.476;2023-05-13T01:39:01;17.64;;;17.64;;
69837;SDS011;57135;51.992;4.476;2023-05-13T01:41:27;17.69;;;17.68;;
69837;SDS011;57135;51.992;4.476;2023-05-13T01:43:53;17.95;;;17.95;;
69837;SDS011;57135;51.992;4.476;2023-05-13T01:46:18;17.81;;;17.81;;
69837;SDS011;57135;51.992;4.476;2023-05-13T01:48:44;17.84;;;17.84;;
69837;SDS011;57135;51.992;4.476;2023-05-13T01:51:09;18.19;;;18.19;;
69837;SDS011;57135;51.992;4.476;2023-05-13T01:53:35;17.04;;;17.03;;
69837;SDS011;57135;51.992;4.476;2023-05-13T01:56:00;16.98;;;16.96;;
69837;SDS011;57135;51.992;4.476;2023-05-13T01:58:26;15.93;;;15.93;;
69837;SDS011;57135;51.992;4.476;2023-05-13T02:00:51;16.51;;;16.51;;
69837;SDS011;57135;51.992;4.476;2023-05-13T02:03:17;16.20;;;16.20;;
69837;SDS011;57135;51.992;4.476;2023-05-13T02:05:44;16.47;;;16.47;;
69837;SDS011;57135;51.992;4.476;2023-05-13T02:08:10;16.34;;;16.34;;
69837;SDS011;57135;51.992;4.476;2023-05-13T02:10:36;16.72;;;16.72;;
69837;SDS011;57135;51.992;4.476;2023-05-13T02:13:01;16.86;;;16.86;;
69837;SDS011;57135;51.992;4.476;2023-05-13T02:15:28;17.11;;;17.11;;
69837;SDS011;57135;51.992;4.476;2023-05-13T02:17:53;16.99;;;16.99;;
69837;SDS011;57135;51.992;4.476;2023-05-13T02:20:19;17.07;;;17.07;;
69837;SDS011;57135;51.992;4.476;2023-05-13T02:22:44;16.75;;;16.75;;
69837;SDS011;57135;51.992;4.476;2023-05-13T02:25:09;17.44;;;17.39;;
69837;SDS011;57135;51.992;4.476;2023-05-13T02:27:35;16.55;;;16.55;;
69837;SDS011;57135;51.992;4.476;2023-05-13T02:30:01;17.00;;;17.00;;
69837;SDS011;57135;51.992;4.476;2023-05-13T02:32:26;16.88;;;16.88;;
69837;SDS011;57135;51.992;4.476;2023-05-13T02:34:54;16.35;;;16.35;;
69837;SDS011;57135;51.992;4.476;2023-05-13T02:37:23;16.16;;;16.16;;
69837;SDS011;57135;51.992;4.476;2023-05-13T02:39:48;15.55;;;15.55;;
69837;SDS011;57135;51.992;4.476;2023-05-13T02:42:14;16.01;;;16.01;;
69837;SDS011;57135;51.992;4.476;2023-05-13T02:44:39;17.04;;;17.04;;
69837;SDS011;57135;51.992;4.476;2023-05-13T02:47:05;16.78;;;16.78;;
69837;SDS011;57135;51.992;4.476;2023-05-13T02:49:30;17.25;;;17.25;;
69837;SDS011;57135;51.992;4.476;2023-05-13T02:51:56;17.63;;;17.63;;
69837;SDS011;57135;51.992;4.476;2023-05-13T02:54:21;17.64;;;17.64;;
69837;SDS011;57135;51.992;4.476;2023-05-13T02:56:47;17.78;;;17.78;;
69837;SDS011;57135;51.992;4.476;2023-05-13T02:59:12;17.63;;;17.63;;
69837;SDS011;57135;51.992;4.476;2023-05-13T03:01:38;17.65;;;17.65;;
69837;SDS011;57135;51.992;4.476;2023-05-13T03:04:03;18.08;;;18.08;;
69837;SDS011;57135;51.992;4.476;2023-05-13T03:06:29;17.72;;;17.72;;
69837;SDS011;57135;51.992;4.476;2023-05-13T03:08:55;17.38;;;17.38;;
69837;SDS011;57135;51.992;4.476;2023-05-13T03:11:21;17.44;;;17.44;;
69837;SDS011;57135;51.992;4.476;2023-05-13T03:13:47;16.94;;;16.94;;
69837;SDS011;57135;51.992;4.476;2023-05-13T03:16:12;17.40;;;17.40;;
69837;SDS011;57135;51.992;4.476;2023-05-13T03:18:37;17.07;;;17.07;;
69837;SDS011;57135;51.992;4.476;2023-05-13T03:21:03;16.92;;;16.92;;
69837;SDS011;57135;51.992;4.476;2023-05-13T03:23:29;16.91;;;16.89;;
69837;SDS011;57135;51.992;4.476;2023-05-13T03:25:54;16.32;;;16.32;;
69837;SDS011;57135;51.992;4.476;2023-05-13T03:28:20;16.26;;;16.26;;
69837;SDS011;57135;51.992;4.476;2023-05-13T03:30:45;16.25;;;16.25;;
69837;SDS011;57135;51.992;4.476;2023-05-13T03:33:11;16.04;;;16.04;;
69837;SDS011;57135;51.992;4.476;2023-05-13T03:35:36;15.84;;;15.84;;
69837;SDS011;57135;51.992;4.476;2023-05-13T03:38:02;15.90;;;15.90;;
69837;SDS011;57135;51.992;4.476;2023-05-13T03:40:28;16.66;;;16.65;;
69837;SDS011;57135;51.992;4.476;2023-05-13T03:42:53;17.00;;;17.00;;
69837;SDS011;57135;51.992;4.476;2023-05-13T03:45:19;17.02;;;17.02;;
69837;SDS011;57135;51.992;4.476;2023-05-13T03:47:44;17.37;;;17.37;;
69837;SDS011;57135;51.992;4.476;2023-05-13T03:50:10;18.18;;;18.18;;
69837;SDS011;57135;51.992;4.476;2023-05-13T03:52:36;18.27;;;18.27;;
69837;SDS011;57135;51.992;4.476;2023-05-13T03:55:01;18.26;;;18.26;;
69837;SDS011;57135;51.992;4.476;2023-05-13T03:57:27;17.87;;;17.87;;
69837;SDS011;57135;51.992;4.476;2023-05-13T03:59:52;18.88;;;18.88;;
69837;SDS011;57135;51.992;4.476;2023-05-13T04:02:17;18.37;;;18.37;;
69837;SDS011;57135;51.992;4.476;2023-05-13T04:04:45;19.10;;;19.06;;
69837;SDS011;57135;51.992;4.476;2023-05-13T04:07:11;19.74;;;19.74;;
69837;SDS011;57135;51.992;4.476;2023-05-13T04:09:36;19.62;;;19.62;;
69837;SDS011;57135;51.992;4.476;2023-05-13T04:12:02;19.36;;;19.35;;
69837;SDS011;57135;51.992;4.476;2023-05-13T04:17:06;20.67;;;20.67;;
69837;SDS011;57135;51.992;4.476;2023-05-13T04:19:31;20.09;;;20.05;;
69837;SDS011;57135;51.992;4.476;2023-05-13T04:21:57;20.89;;;20.89;;
69837;SDS011;57135;51.992;4.476;2023-05-13T04:24:22;20.54;;;20.54;;
69837;SDS011;57135;51.992;4.476;2023-05-13T04:26:48;20.24;;;20.24;;
69837;SDS011;57135;51.992;4.476;2023-05-13T04:29:13;20.35;;;20.32;;
69837;SDS011;57135;51.992;4.476;2023-05-13T04:31:41;20.02;;;20.01;;
69837;SDS011;57135;51.992;4.476;2023-05-13T04:34:06;20.10;;;20.09;;
69837;SDS011;57135;51.992;4.476;2023-05-13T04:36:32;20.94;;;20.84;;
69837;SDS011;57135;51.992;4.476;2023-05-13T04:39:00;21.23;;;21.23;;
69837;SDS011;57135;51.992;4.476;2023-05-13T04:41:26;21.30;;;21.30;;
69837;SDS011;57135;51.992;4.476;2023-05-13T04:43:51;22.00;;;22.00;;
69837;SDS011;57135;51.992;4.476;2023-05-13T04:46:17;22.06;;;22.01;;
69837;SDS011;57135;51.992;4.476;2023-05-13T04:48:42;22.45;;;22.43;;
69837;SDS011;57135;51.992;4.476;2023-05-13T04:51:12;22.19;;;22.12;;
69837;SDS011;57135;51.992;4.476;2023-05-13T04:53:39;22.98;;;22.98;;
69837;SDS011;57135;51.992;4.476;2023-05-13T04:56:04;22.78;;;22.78;;
69837;SDS011;57135;51.992;4.476;2023-05-13T04:58:30;22.48;;;22.48;;
69837;SDS011;57135;51.992;4.476;2023-05-13T05:00:55;22.74;;;22.73;;
69837;SDS011;57135;51.992;4.476;2023-05-13T05:03:21;22.97;;;22.96;;
69837;SDS011;57135;51.992;4.476;2023-05-13T05:05:47;23.82;;;23.81;;
69837;SDS011;57135;51.992;4.476;2023-05-13T05:08:16;24.42;;;24.37;;
69837;SDS011;57135;51.992;4.476;2023-05-13T05:10:44;24.84;;;24.72;;
69837;SDS011;57135;51.992;4.476;2023-05-13T05:13:09;24.86;;;24.84;;
69837;SDS011;57135;51.992;4.476;2023-05-13T05:15:35;24.80;;;24.80;;
69837;SDS011;57135;51.992;4.476;2023-05-13T05:18:00;25.60;;;25.60;;
69837;SDS011;57135;51.992;4.476;2023-05-13T05:20:26;26.11;;;26.07;;
69837;SDS011;57135;51.992;4.476;2023-05-13T05:22:51;26.50;;;26.49;;
69837;SDS011;57135;51.992;4.476;2023-05-13T05:25:17;25.79;;;25.79;;
69837;SDS011;57135;51.992;4.476;2023-05-13T05:27:42;26.78;;;26.77;;
69837;SDS011;57135;51.992;4.476;2023-05-13T05:30:08;26.25;;;26.23;;
69837;SDS011;57135;51.992;4.476;2023-05-13T05:32:34;26.73;;;26.73;;
69837;SDS011;57135;51.992;4.476;2023-05-13T05:35:00;26.62;;;26.57;;
69837;SDS011;57135;51.992;4.476;2023-05-13T05:37:28;27.42;;;27.27;;
69837;SDS011;57135;51.992;4.476;2023-05-13T05:39:54;28.12;;;27.83;;
69837;SDS011;57135;51.992;4.476;2023-05-13T05:42:20;28.41;;;28.25;;
69837;SDS011;57135;51.992;4.476;2023-05-13T05:44:45;28.07;;;28.07;;
69837;SDS011;57135;51.992;4.476;2023-05-13T05:47:11;28.18;;;27.97;;
69837;SDS011;57135;51.992;4.476;2023-05-13T05:49:37;28.80;;;28.64;;
69837;SDS011;57135;51.992;4.476;2023-05-13T05:52:02;27.98;;;27.77;;
69837;SDS011;57135;51.992;4.476;2023-05-13T05:54:29;28.50;;;28.50;;
69837;SDS011;57135;51.992;4.476;2023-05-13T05:56:54;27.75;;;27.75;;
69837;SDS011;57135;51.992;4.476;2023-05-13T05:59:20;27.91;;;27.89;;
69837;SDS011;57135;51.992;4.476;2023-05-13T06:01:45;28.33;;;28.32;;
69837;SDS011;57135;51.992;4.476;2023-05-13T06:04:11;28.14;;;28.07;;
69837;SDS011;57135;51.992;4.476;2023-05-13T06:06:36;28.31;;;28.15;;
69837;SDS011;57135;51.992;4.476;2023-05-13T06:09:03;28.13;;;27.97;;
69837;SDS011;57135;51.992;4.476;2023-05-13T06:11:29;27.78;;;27.72;;
69837;SDS011;57135;51.992;4.476;2023-05-13T06:13:54;27.25;;;27.18;;
69837;SDS011;57135;51.992;4.476;2023-05-13T06:16:21;27.49;;;27.44;;
69837;SDS011;57135;51.992;4.476;2023-05-13T06:18:47;27.09;;;26.95;;
69837;SDS011;57135;51.992;4.476;2023-05-13T06:21:13;26.88;;;26.85;;
69837;SDS011;57135;51.992;4.476;2023-05-13T06:23:38;26.64;;;26.63;;
69837;SDS011;57135;51.992;4.476;2023-05-13T06:26:04;26.73;;;26.64;;
69837;SDS011;57135;51.992;4.476;2023-05-13T06:28:30;26.40;;;26.10;;
69837;SDS011;57135;51.992;4.476;2023-05-13T06:30:55;25.39;;;25.39;;
69837;SDS011;57135;51.992;4.476;2023-05-13T06:33:21;25.82;;;25.82;;
69837;SDS011;57135;51.992;4.476;2023-05-13T06:35:46;25.74;;;25.74;;
69837;SDS011;57135;51.992;4.476;2023-05-13T06:38:16;24.96;;;24.89;;
69837;SDS011;57135;51.992;4.476;2023-05-13T06:40:42;25.05;;;25.05;;
69837;SDS011;57135;51.992;4.476;2023-05-13T06:43:09;25.39;;;25.39;;
69837;SDS011;57135;51.992;4.476;2023-05-13T06:45:36;24.43;;;24.43;;
69837;SDS011;57135;51.992;4.476;2023-05-13T06:48:02;24.41;;;24.36;;
69837;SDS011;57135;51.992;4.476;2023-05-13T06:50:27;24.74;;;24.73;;
69837;SDS011;57135;51.992;4.476;2023-05-13T06:52:53;24.62;;;24.61;;
69837;SDS011;57135;51.992;4.476;2023-05-13T06:55:18;24.28;;;24.24;;
69837;SDS011;57135;51.992;4.476;2023-05-13T06:57:44;23.09;;;23.09;;
69837;SDS011;57135;51.992;4.476;2023-05-13T07:00:11;23.54;;;23.49;;
69837;SDS011;57135;51.992;4.476;2023-05-13T07:02:37;22.72;;;22.72;;
69837;SDS011;57135;51.992;4.476;2023-05-13T07:05:03;22.42;;;22.41;;
69837;SDS011;57135;51.992;4.476;2023-05-13T07:07:29;21.10;;;21.10;;
69837;SDS011;57135;51.992;4.476;2023-05-13T07:09:55;20.97;;;20.97;;
69837;SDS011;57135;51.992;4.476;2023-05-13T07:12:20;21.51;;;21.50;;
69837;SDS011;57135;51.992;4.476;2023-05-13T07:14:46;21.25;;;21.25;;
69837;SDS011;57135;51.992;4.476;2023-05-13T07:17:11;20.33;;;20.33;;
69837;SDS011;57135;51.992;4.476;2023-05-13T07:19:37;19.91;;;19.91;;
69837;SDS011;57135;51.992;4.476;2023-05-13T07:22:02;19.53;;;19.53;;
69837;SDS011;57135;51.992;4.476;2023-05-13T07:24:28;18.84;;;18.83;;
69837;SDS011;57135;51.992;4.476;2023-05-13T07:26:53;19.22;;;19.20;;
69837;SDS011;57135;51.992;4.476;2023-05-13T07:29:19;18.50;;;18.50;;
69837;SDS011;57135;51.992;4.476;2023-05-13T07:31:44;18.01;;;18.01;;
69837;SDS011;57135;51.992;4.476;2023-05-13T07:34:10;17.87;;;17.87;;
69837;SDS011;57135;51.992;4.476;2023-05-13T07:36:35;17.90;;;17.90;;
69837;SDS011;57135;51.992;4.476;2023-05-13T07:39:01;16.91;;;16.91;;
69837;SDS011;57135;51.992;4.476;2023-05-13T07:41:27;16.80;;;16.80;;
69837;SDS011;57135;51.992;4.476;2023-05-13T07:43:52;15.58;;;15.58;;
69837;SDS011;57135;51.992;4.476;2023-05-13T07:46:18;15.53;;;15.53;;
69837;SDS011;57135;51.992;4.476;2023-05-13T07:48:43;16.02;;;16.02;;
69837;SDS011;57135;51.992;4.476;2023-05-13T07:51:09;15.48;;;15.48;;
69837;SDS011;57135;51.992;4.476;2023-05-13T07:53:35;15.68;;;15.68;;
69837;SDS011;57135;51.992;4.476;2023-05-13T07:56:01;15.20;;;15.20;;
69837;SDS011;57135;51.992;4.476;2023-05-13T07:58:27;15.14;;;15.14;;
69837;SDS011;57135;51.992;4.476;2023-05-13T08:00:52;14.80;;;14.80;;
69837;SDS011;57135;51.992;4.476;2023-05-13T08:03:18;15.35;;;15.35;;
69837;SDS011;57135;51.992;4.476;2023-05-13T08:05:43;14.26;;;14.26;;
69837;SDS011;57135;51.992;4.476;2023-05-13T08:08:09;14.96;;;14.96;;
69837;SDS011;57135;51.992;4.476;2023-05-13T08:10:34;14.08;;;14.08;;
69837;SDS011;57135;51.992;4.476;2023-05-13T08:13:00;14.07;;;14.06;;
69837;SDS011;57135;51.992;4.476;2023-05-13T08:15:26;14.99;;;14.98;;
69837;SDS011;57135;51.992;4.476;2023-05-13T08:17:52;14.38;;;14.38;;
69837;SDS011;57135;51.992;4.476;2023-05-13T08:20:18;14.77;;;14.77;;
69837;SDS011;57135;51.992;4.476;2023-05-13T08:22:44;15.27;;;15.27;;
69837;SDS011;57135;51.992;4.476;2023-05-13T08:25:10;14.69;;;14.69;;
69837;SDS011;57135;51.992;4.476;2023-05-13T08:27:36;14.90;;;14.90;;
69837;SDS011;57135;51.992;4.476;2023-05-13T08:30:04;14.96;;;14.96;;
69837;SDS011;57135;51.992;4.476;2023-05-13T08:32:30;14.27;;;14.27;;
69837;SDS011;57135;51.992;4.476;2023-05-13T08:34:56;13.91;;;13.91;;
69837;SDS011;57135;51.992;4.476;2023-05-13T08:37:21;14.50;;;14.50;;
69837;SDS011;57135;51.992;4.476;2023-05-13T08:39:47;13.91;;;13.91;;
69837;SDS011;57135;51.992;4.476;2023-05-13T08:42:13;13.60;;;13.60;;
69837;SDS011;57135;51.992;4.476;2023-05-13T08:44:43;14.06;;;14.06;;
69837;SDS011;57135;51.992;4.476;2023-05-13T08:49:40;13.45;;;13.45;;
69837;SDS011;57135;51.992;4.476;2023-05-13T08:52:06;13.25;;;13.25;;
69837;SDS011;57135;51.992;4.476;2023-05-13T08:54:32;12.77;;;12.77;;
69837;SDS011;57135;51.992;4.476;2023-05-13T08:56:58;12.69;;;12.69;;
69837;SDS011;57135;51.992;4.476;2023-05-13T08:59:24;12.41;;;12.41;;
69837;SDS011;57135;51.992;4.476;2023-05-13T09:01:49;13.06;;;13.06;;
69837;SDS011;57135;51.992;4.476;2023-05-13T09:04:16;12.62;;;12.62;;
69837;SDS011;57135;51.992;4.476;2023-05-13T09:06:45;12.47;;;12.47;;
69837;SDS011;57135;51.992;4.476;2023-05-13T09:09:11;12.46;;;12.46;;
69837;SDS011;57135;51.992;4.476;2023-05-13T09:11:37;13.40;;;13.40;;
69837;SDS011;57135;51.992;4.476;2023-05-13T09:14:04;12.02;;;12.02;;
69837;SDS011;57135;51.992;4.476;2023-05-13T09:16:31;12.10;;;12.10;;
69837;SDS011;57135;51.992;4.476;2023-05-13T09:19:01;12.04;;;12.04;;
69837;SDS011;57135;51.992;4.476;2023-05-13T09:21:32;12.21;;;12.21;;
69837;SDS011;57135;51.992;4.476;2023-05-13T09:26:32;12.12;;;12.12;;
69837;SDS011;57135;51.992;4.476;2023-05-13T09:31:44;11.15;;;11.15;;
69837;SDS011;57135;51.992;4.476;2023-05-13T09:34:13;11.43;;;11.43;;
69837;SDS011;57135;51.992;4.476;2023-05-13T09:36:39;10.60;;;10.60;;
69837;SDS011;57135;51.992;4.476;2023-05-13T09:39:05;10.66;;;10.66;;
69837;SDS011;57135;51.992;4.476;2023-05-13T09:41:31;11.03;;;11.03;;
69837;SDS011;57135;51.992;4.476;2023-05-13T09:44:00;10.95;;;10.95;;
69837;SDS011;57135;51.992;4.476;2023-05-13T09:46:26;10.68;;;10.68;;
69837;SDS011;57135;51.992;4.476;2023-05-13T09:48:52;11.13;;;11.13;;
69837;SDS011;57135;51.992;4.476;2023-05-13T09:51:25;11.79;;;11.79;;
69837;SDS011;57135;51.992;4.476;2023-05-13T09:53:53;11.76;;;11.76;;
69837;SDS011;57135;51.992;4.476;2023-05-13T09:56:20;12.00;;;12.00;;
69837;SDS011;57135;51.992;4.476;2023-05-13T09:58:51;11.44;;;11.44;;
69837;SDS011;57135;51.992;4.476;2023-05-13T10:01:17;12.02;;;12.02;;
69837;SDS011;57135;51.992;4.476;2023-05-13T10:03:44;10.70;;;10.70;;
69837;SDS011;57135;51.992;4.476;2023-05-13T10:06:10;10.84;;;10.84;;
69837;SDS011;57135;51.992;4.476;2023-05-13T10:08:35;10.10;;;10.10;;
69837;SDS011;57135;51.992;4.476;2023-05-13T10:11:02;11.63;;;11.63;;
69837;SDS011;57135;51.992;4.476;2023-05-13T10:13:31;10.57;;;10.57;;
69837;SDS011;57135;51.992;4.476;2023-05-13T10:15:58;11.03;;;11.03;;
69837;SDS011;57135;51.992;4.476;2023-05-13T10:18:24;11.01;;;11.01;;
69837;SDS011;57135;51.992;4.476;2023-05-13T10:20:52;10.61;;;10.61;;
69837;SDS011;57135;51.992;4.476;2023-05-13T10:23:19;10.21;;;10.21;;
69837;SDS011;57135;51.992;4.476;2023-05-13T10:25:52;10.30;;;10.30;;
69837;SDS011;57135;51.992;4.476;2023-05-13T10:28:18;9.55;;;9.55;;
69837;SDS011;57135;51.992;4.476;2023-05-13T10:30:44;10.06;;;10.06;;
69837;SDS011;57135;51.992;4.476;2023-05-13T10:33:10;9.84;;;9.84;;
69837;SDS011;57135;51.992;4.476;2023-05-13T10:35:36;10.47;;;10.47;;
69837;SDS011;57135;51.992;4.476;2023-05-13T10:38:06;9.94;;;9.94;;
69837;SDS011;57135;51.992;4.476;2023-05-13T10:40:40;10.17;;;10.17;;
69837;SDS011;57135;51.992;4.476;2023-05-13T10:43:22;10.62;;;10.62;;
69837;SDS011;57135;51.992;4.476;2023-05-13T10:45:59;11.04;;;11.04;;
69837;SDS011;57135;51.992;4.476;2023-05-13T10:48:37;11.17;;;11.17;;
69837;SDS011;57135;51.992;4.476;2023-05-13T10:51:07;10.60;;;10.60;;
69837;SDS011;57135;51.992;4.476;2023-05-13T10:53:42;10.73;;;10.73;;
69837;SDS011;57135;51.992;4.476;2023-05-13T10:56:10;10.84;;;10.84;;
69837;SDS011;57135;51.992;4.476;2023-05-13T10:58:36;11.58;;;11.58;;
69837;SDS011;57135;51.992;4.476;2023-05-13T11:01:15;12.64;;;12.64;;
69837;SDS011;57135;51.992;4.476;2023-05-13T11:03:56;12.23;;;12.23;;
69837;SDS011;57135;51.992;4.476;2023-05-13T11:06:26;12.24;;;12.23;;
69837;SDS011;57135;51.992;4.476;2023-05-13T11:08:54;12.18;;;12.18;;
69837;SDS011;57135;51.992;4.476;2023-05-13T11:13:45;12.49;;;12.49;;
69837;SDS011;57135;51.992;4.476;2023-05-13T11:16:14;12.82;;;12.81;;
69837;SDS011;57135;51.992;4.476;2023-05-13T11:18:42;12.68;;;12.68;;
69837;SDS011;57135;51.992;4.476;2023-05-13T11:21:08;12.89;;;12.89;;
69837;SDS011;57135;51.992;4.476;2023-05-13T11:26:22;13.35;;;13.35;;
69837;SDS011;57135;51.992;4.476;2023-05-13T11:28:58;13.13;;;13.13;;
69837;SDS011;57135;51.992;4.476;2023-05-13T11:31:25;13.40;;;13.40;;
69837;SDS011;57135;51.992;4.476;2023-05-13T11:36:41;13.78;;;13.78;;
69837;SDS011;57135;51.992;4.476;2023-05-13T11:39:09;13.89;;;13.89;;
69837;SDS011;57135;51.992;4.476;2023-05-13T11:41:44;14.00;;;14.00;;
69837;SDS011;57135;51.992;4.476;2023-05-13T11:44:12;13.63;;;13.63;;
69837;SDS011;57135;51.992;4.476;2023-05-13T11:46:55;14.19;;;14.19;;
69837;SDS011;57135;51.992;4.476;2023-05-13T11:49:30;13.90;;;13.90;;
69837;SDS011;57135;51.992;4.476;2023-05-13T11:52:03;14.08;;;14.08;;
69837;SDS011;57135;51.992;4.476;2023-05-13T11:54:43;13.79;;;13.79;;
69837;SDS011;57135;51.992;4.476;2023-05-13T11:57:19;13.95;;;13.94;;
69837;SDS011;57135;51.992;4.476;2023-05-13T11:59:48;13.77;;;13.77;;
69837;SDS011;57135;51.992;4.476;2023-05-13T12:02:22;14.22;;;14.22;;
69837;SDS011;57135;51.992;4.476;2023-05-13T12:04:52;14.35;;;14.35;;
69837;SDS011;57135;51.992;4.476;2023-05-13T12:07:27;13.66;;;13.66;;
69837;SDS011;57135;51.992;4.476;2023-05-13T12:09:54;13.89;;;13.88;;
69837;SDS011;57135;51.992;4.476;2023-05-13T12:12:21;14.08;;;14.08;;
69837;SDS011;57135;51.992;4.476;2023-05-13T12:14:47;14.31;;;14.31;;
69837;SDS011;57135;51.992;4.476;2023-05-13T12:17:20;13.87;;;13.87;;
69837;SDS011;57135;51.992;4.476;2023-05-13T12:30:39;14.26;;;14.26;;
69837;SDS011;57135;51.992;4.476;2023-05-13T12:33:27;13.97;;;13.97;;
69837;SDS011;57135;51.992;4.476;2023-05-13T12:39:00;14.10;;;14.10;;
69837;SDS011;57135;51.992;4.476;2023-05-13T12:41:28;14.19;;;14.19;;
69837;SDS011;57135;51.992;4.476;2023-05-13T12:43:58;14.13;;;14.13;;
69837;SDS011;57135;51.992;4.476;2023-05-13T12:46:25;14.18;;;14.18;;
69837;SDS011;57135;51.992;4.476;2023-05-13T12:48:53;14.27;;;14.27;;
69837;SDS011;57135;51.992;4.476;2023-05-13T12:51:20;13.86;;;13.83;;
69837;SDS011;57135;51.992;4.476;2023-05-13T12:53:46;13.88;;;13.88;;
69837;SDS011;57135;51.992;4.476;2023-05-13T12:56:11;14.23;;;14.23;;
69837;SDS011;57135;51.992;4.476;2023-05-13T12:58:37;14.01;;;14.01;;
69837;SDS011;57135;51.992;4.476;2023-05-13T13:01:03;13.72;;;13.72;;
69837;SDS011;57135;51.992;4.476;2023-05-13T13:03:28;13.91;;;13.91;;
69837;SDS011;57135;51.992;4.476;2023-05-13T13:05:54;14.02;;;14.02;;
69837;SDS011;57135;51.992;4.476;2023-05-13T13:08:22;13.92;;;13.92;;
69837;SDS011;57135;51.992;4.476;2023-05-13T13:10:48;13.95;;;13.95;;
69837;SDS011;57135;51.992;4.476;2023-05-13T13:13:14;13.83;;;13.83;;
69837;SDS011;57135;51.992;4.476;2023-05-13T13:15:39;13.52;;;13.52;;
69837;SDS011;57135;51.992;4.476;2023-05-13T13:18:05;13.87;;;13.87;;
69837;SDS011;57135;51.992;4.476;2023-05-13T13:20:30;14.03;;;14.03;;
69837;SDS011;57135;51.992;4.476;2023-05-13T13:22:56;14.13;;;14.13;;
69837;SDS011;57135;51.992;4.476;2023-05-13T13:25:24;14.06;;;14.06;;
69837;SDS011;57135;51.992;4.476;2023-05-13T13:27:51;14.36;;;14.36;;
69837;SDS011;57135;51.992;4.476;2023-05-13T13:30:16;14.35;;;14.35;;
69837;SDS011;57135;51.992;4.476;2023-05-13T13:32:42;14.66;;;14.66;;
69837;SDS011;57135;51.992;4.476;2023-05-13T13:35:08;14.50;;;14.47;;
69837;SDS011;57135;51.992;4.476;2023-05-13T13:37:34;14.51;;;14.51;;
69837;SDS011;57135;51.992;4.476;2023-05-13T13:39:59;14.27;;;14.27;;
69837;SDS011;57135;51.992;4.476;2023-05-13T13:42:25;14.50;;;14.50;;
69837;SDS011;57135;51.992;4.476;2023-05-13T13:44:50;14.50;;;14.50;;
69837;SDS011;57135;51.992;4.476;2023-05-13T13:47:16;14.31;;;14.31;;
69837;SDS011;57135;51.992;4.476;2023-05-13T13:49:41;14.46;;;14.46;;
69837;SDS011;57135;51.992;4.476;2023-05-13T13:52:07;14.53;;;14.53;;
69837;SDS011;57135;51.992;4.476;2023-05-13T13:54:32;14.66;;;14.66;;
69837;SDS011;57135;51.992;4.476;2023-05-13T13:56:58;14.88;;;14.88;;
69837;SDS011;57135;51.992;4.476;2023-05-13T13:59:23;15.32;;;15.32;;
69837;SDS011;57135;51.992;4.476;2023-05-13T14:01:49;15.14;;;15.14;;
69837;SDS011;57135;51.992;4.476;2023-05-13T14:04:15;15.44;;;15.44;;
69837;SDS011;57135;51.992;4.476;2023-05-13T14:06:51;15.57;;;15.57;;
69837;SDS011;57135;51.992;4.476;2023-05-13T14:09:17;15.49;;;15.49;;
69837;SDS011;57135;51.992;4.476;2023-05-13T14:11:43;15.42;;;15.42;;
69837;SDS011;57135;51.992;4.476;2023-05-13T14:14:09;15.75;;;15.75;;
69837;SDS011;57135;51.992;4.476;2023-05-13T14:16:35;14.63;;;14.63;;
69837;SDS011;57135;51.992;4.476;2023-05-13T14:19:00;14.71;;;14.71;;
69837;SDS011;57135;51.992;4.476;2023-05-13T14:21:26;14.60;;;14.60;;
69837;SDS011;57135;51.992;4.476;2023-05-13T14:23:51;15.09;;;15.09;;
69837;SDS011;57135;51.992;4.476;2023-05-13T14:26:17;14.95;;;14.95;;
69837;SDS011;57135;51.992;4.476;2023-05-13T14:28:42;14.35;;;14.35;;
69837;SDS011;57135;51.992;4.476;2023-05-13T14:31:08;14.46;;;14.46;;
69837;SDS011;57135;51.992;4.476;2023-05-13T14:33:34;14.89;;;14.89;;
69837;SDS011;57135;51.992;4.476;2023-05-13T14:35:59;15.24;;;15.24;;
69837;SDS011;57135;51.992;4.476;2023-05-13T14:38:25;15.60;;;15.60;;
69837;SDS011;57135;51.992;4.476;2023-05-13T14:40:52;15.35;;;15.35;;
69837;SDS011;57135;51.992;4.476;2023-05-13T14:43:20;15.51;;;15.51;;
69837;SDS011;57135;51.992;4.476;2023-05-13T14:45:46;15.12;;;15.12;;
69837;SDS011;57135;51.992;4.476;2023-05-13T14:48:11;15.65;;;15.65;;
69837;SDS011;57135;51.992;4.476;2023-05-13T14:50:37;15.38;;;15.38;;